createdAt,value
2024-03-09T00:00:04.463Z,1507.6230
2024-03-09T00:00:15.831Z,1503.3781
2024-03-09T00:00:26.897Z,1506.7720
2024-03-09T00:00:37.999Z,1504.2250
2024-03-09T00:00:49.049Z,1510.1810
2024-03-09T00:01:00.091Z,1498.3160
2024-03-09T00:01:11.158Z,1507.6230
2024-03-09T00:01:22.195Z,1511.8910
2024-03-09T00:01:33.275Z,1500.0000
2024-03-09T00:01:44.399Z,1500.0000
2024-03-09T00:01:55.589Z,1500.0000
2024-03-09T00:02:06.759Z,1506.7720
2024-03-09T00:02:18.011Z,1503.3781
2024-03-09T00:02:29.354Z,1502.5320
2024-03-09T00:02:40.538Z,1503.3781
2024-03-09T00:02:51.695Z,1508.4750
2024-03-09T00:03:02.801Z,1503.3781
2024-03-09T00:03:14.312Z,1499.1580
2024-03-09T00:03:27.445Z,1512.7480
2024-03-09T00:03:39.999Z,1501.6870
2024-03-09T00:03:51.049Z,1501.6870
2024-03-09T00:04:02.107Z,1510.1810
2024-03-09T00:04:13.181Z,1507.6230
2024-03-09T00:04:24.272Z,1509.3270
2024-03-09T00:04:35.347Z,1500.0000
2024-03-09T00:04:46.414Z,1508.4750
2024-03-09T00:04:57.570Z,1513.6050
2024-03-09T00:05:08.756Z,1509.3270
2024-03-09T00:05:19.834Z,1495.7980
2024-03-09T00:05:30.894Z,1496.6370
2024-03-09T00:05:42.028Z,1501.6870
2024-03-09T00:05:53.093Z,1505.0730
2024-03-09T00:06:04.144Z,1499.1580
2024-03-09T00:06:15.197Z,1503.3781
2024-03-09T00:06:26.259Z,1500.0000
2024-03-09T00:06:37.328Z,1503.3781
2024-03-09T00:06:48.377Z,1505.0730
2024-03-09T00:06:59.414Z,1515.3240
2024-03-09T00:07:10.445Z,1498.3160
2024-03-09T00:07:21.514Z,1501.6870
2024-03-09T00:07:32.581Z,1505.0730
2024-03-09T00:07:43.679Z,1515.3230
2024-03-09T00:07:54.748Z,1508.4750
2024-03-09T00:08:05.957Z,1501.6870
2024-03-09T00:08:17.039Z,1501.6870
2024-03-09T00:08:28.095Z,1497.4760
2024-03-09T00:08:39.141Z,1503.3781
2024-03-09T00:08:50.204Z,1496.6370
2024-03-09T00:09:01.232Z,1511.8910
2024-03-09T00:09:12.284Z,1500.0000
2024-03-09T00:09:23.322Z,1501.6870
2024-03-09T00:09:34.349Z,1513.6050
2024-03-09T00:09:45.405Z,1498.3160
2024-03-09T00:09:56.452Z,1501.6870
2024-03-09T00:10:07.537Z,1508.4750
2024-03-09T00:10:18.620Z,1499.1580
2024-03-09T00:10:29.675Z,1500.8430
2024-03-09T00:10:40.738Z,1516.1840
2024-03-09T00:10:51.841Z,1500.8430
2024-03-09T00:11:03.243Z,1497.4760
2024-03-09T00:11:14.400Z,1500.0000
2024-03-09T00:11:25.595Z,1500.8430
2024-03-09T00:11:36.817Z,1508.4750
2024-03-09T00:11:47.937Z,1505.0730
2024-03-09T00:11:59.019Z,1495.7980
2024-03-09T00:12:10.058Z,1497.4760
2024-03-09T00:12:21.084Z,1500.0000
2024-03-09T00:12:32.137Z,1504.2250
2024-03-09T00:12:43.169Z,1513.6050
2024-03-09T00:12:54.235Z,1502.5320
2024-03-09T00:13:05.437Z,1501.6870
2024-03-09T00:13:16.510Z,1503.3781
2024-03-09T00:13:27.613Z,1496.6370
2024-03-09T00:13:40.283Z,1506.7720
2024-03-09T00:13:51.780Z,1515.3240
2024-03-09T00:14:02.945Z,1496.6370
2024-03-09T00:14:14.080Z,1499.1580
2024-03-09T00:14:25.209Z,1499.1580
2024-03-09T00:14:36.250Z,1497.4760
2024-03-09T00:14:47.287Z,1499.1580
2024-03-09T00:14:58.347Z,1501.6870
2024-03-09T00:15:09.399Z,1494.9611
2024-03-09T00:15:20.523Z,1510.1810
2024-03-09T00:15:31.670Z,1502.5320
2024-03-09T00:15:42.894Z,1495.7980
2024-03-09T00:15:54.064Z,1496.6370
2024-03-09T00:16:05.135Z,1500.8430
2024-03-09T00:16:16.155Z,1495.7980
2024-03-09T00:16:27.253Z,1513.6050
2024-03-09T00:16:38.314Z,1505.0730
2024-03-09T00:16:49.367Z,1500.0000
2024-03-09T00:17:00.566Z,1497.4760
2024-03-09T00:17:11.722Z,1511.8910
2024-03-09T00:17:22.787Z,1510.1810
2024-03-09T00:17:33.856Z,1510.1810
2024-03-09T00:17:44.911Z,1496.6370
2024-03-09T00:17:56.011Z,1513.6050
2024-03-09T00:18:07.077Z,1498.3160
2024-03-09T00:18:26.022Z,1498.3160
2024-03-09T00:18:41.468Z,1506.7720
2024-03-09T00:18:52.032Z,1508.4750
2024-03-09T00:19:03.031Z,1503.3781
2024-03-09T00:19:14.088Z,1506.7720
2024-03-09T00:19:25.225Z,1503.3781
2024-03-09T00:19:36.271Z,1510.1810
2024-03-09T00:19:47.315Z,1506.7720
2024-03-09T00:19:58.486Z,1505.0730
2024-03-09T00:20:09.556Z,1505.0730
2024-03-09T00:20:20.591Z,1503.3781
2024-03-09T00:20:31.675Z,1503.3781
2024-03-09T00:20:42.728Z,1503.3781
2024-03-09T00:20:53.749Z,1510.1810
2024-03-09T00:21:04.791Z,1505.0730
2024-03-09T00:21:15.885Z,1505.0730
2024-03-09T00:21:26.948Z,1493.2889
2024-03-09T00:21:37.994Z,1508.4750
2024-03-09T00:21:49.051Z,1510.1810
2024-03-09T00:22:00.118Z,1503.3781
2024-03-09T00:22:11.150Z,1493.2889
2024-03-09T00:22:22.213Z,1493.2889
2024-03-09T00:22:33.319Z,1508.4750
2024-03-09T00:22:44.369Z,1503.3781
2024-03-09T00:22:55.522Z,1494.1240
2024-03-09T00:23:07.930Z,1506.7720
2024-03-09T00:23:19.562Z,1508.4750
2024-03-09T00:23:30.593Z,1493.2889
2024-03-09T00:23:41.947Z,1510.1810
2024-03-09T00:23:53.430Z,1494.9611
2024-03-09T00:24:04.479Z,1494.9611
2024-03-09T00:24:15.541Z,1501.6870
2024-03-09T00:24:26.590Z,1500.0000
2024-03-09T00:24:37.658Z,1510.1810
2024-03-09T00:24:48.703Z,1510.1810
2024-03-09T00:24:59.760Z,1510.1810
2024-03-09T00:25:10.793Z,1498.3170
2024-03-09T00:25:21.845Z,1508.4750
2024-03-09T00:25:33.015Z,1505.0730
2024-03-09T00:25:44.144Z,1494.9611
2024-03-09T00:25:55.225Z,1508.4750
2024-03-09T00:26:06.243Z,1493.2889
2024-03-09T00:26:17.309Z,1492.4540
2024-03-09T00:26:28.369Z,1494.9611
2024-03-09T00:26:39.419Z,1513.6050
2024-03-09T00:26:50.469Z,1510.1810
2024-03-09T00:27:01.516Z,1505.0730
2024-03-09T00:27:12.541Z,1493.2889
2024-03-09T00:27:23.594Z,1503.3781
2024-03-09T00:27:34.664Z,1501.6870
2024-03-09T00:27:45.714Z,1494.9611
2024-03-09T00:27:56.779Z,1510.1810
2024-03-09T00:28:08.442Z,1510.1810
2024-03-09T00:28:19.666Z,1510.1810
2024-03-09T00:28:30.777Z,1503.3781
2024-03-09T00:28:42.030Z,1510.1810
2024-03-09T00:28:55.976Z,1506.7720
2024-03-09T00:29:07.414Z,1508.4750
2024-03-09T00:29:18.561Z,1510.1810
2024-03-09T00:29:29.640Z,1506.7720
2024-03-09T00:29:40.695Z,1511.8910
2024-03-09T00:29:51.759Z,1505.0730
2024-03-09T00:30:02.822Z,1489.9550
2024-03-09T00:30:13.976Z,1505.0730
2024-03-09T00:30:25.059Z,1510.1810
2024-03-09T00:30:36.596Z,1501.6870
2024-03-09T00:30:47.908Z,1511.8910
2024-03-09T00:30:58.968Z,1500.0000
2024-03-09T00:31:10.028Z,1500.0000
2024-03-09T00:31:21.115Z,1493.2889
2024-03-09T00:31:32.160Z,1503.3781
2024-03-09T00:31:43.182Z,1505.0730
2024-03-09T00:31:54.353Z,1493.2889
2024-03-09T00:32:05.458Z,1503.3781
2024-03-09T00:32:16.508Z,1503.3781
2024-03-09T00:32:27.594Z,1500.0000
2024-03-09T00:32:38.682Z,1506.7720
2024-03-09T00:32:49.765Z,1501.6870
2024-03-09T00:33:01.174Z,1510.1810
2024-03-09T00:33:12.502Z,1510.1810
2024-03-09T00:33:23.609Z,1508.4750
2024-03-09T00:33:34.639Z,1508.4750
2024-03-09T00:33:45.693Z,1503.3781
2024-03-09T00:33:56.719Z,1506.7720
2024-03-09T00:34:07.755Z,1506.7720
2024-03-09T00:34:18.808Z,1506.7720
2024-03-09T00:34:29.882Z,1506.7720
2024-03-09T00:34:40.945Z,1513.6050
2024-03-09T00:34:52.036Z,1491.6200
2024-03-09T00:35:03.176Z,1503.3781
2024-03-09T00:35:21.795Z,1491.6200
2024-03-09T00:35:32.843Z,1503.3781
2024-03-09T00:35:43.910Z,1500.0000
2024-03-09T00:35:54.957Z,1503.3781
2024-03-09T00:36:06.020Z,1500.0000
2024-03-09T00:36:17.105Z,1494.9611
2024-03-09T00:36:28.123Z,1503.3781
2024-03-09T00:36:39.194Z,1494.9611
2024-03-09T00:36:50.256Z,1494.9611
2024-03-09T00:37:01.309Z,1496.6370
2024-03-09T00:37:12.359Z,1501.6870
2024-03-09T00:37:23.416Z,1503.3781
2024-03-09T00:37:34.500Z,1505.0730
2024-03-09T00:37:45.582Z,1500.0000
2024-03-09T00:37:56.726Z,1501.6870
2024-03-09T00:38:07.835Z,1486.6370
2024-03-09T00:38:18.917Z,1496.6370
2024-03-09T00:38:29.984Z,1513.6050
2024-03-09T00:38:41.038Z,1506.7720
2024-03-09T00:38:52.089Z,1493.2889
2024-03-09T00:39:03.175Z,1501.6870
2024-03-09T00:39:14.199Z,1506.7720
2024-03-09T00:39:25.239Z,1500.0000
2024-03-09T00:39:36.279Z,1501.6870
2024-03-09T00:39:47.360Z,1501.6870
2024-03-09T00:39:58.443Z,1501.6870
2024-03-09T00:40:09.479Z,1503.3781
2024-03-09T00:40:20.564Z,1501.6870
2024-03-09T00:40:31.970Z,1500.0000
2024-03-09T00:40:43.414Z,1488.2939
2024-03-09T00:40:54.508Z,1506.7720
2024-03-09T00:41:05.636Z,1510.1810
2024-03-09T00:41:16.790Z,1489.9550
2024-03-09T00:41:27.907Z,1506.7720
2024-03-09T00:41:38.929Z,1496.6370
2024-03-09T00:41:50.003Z,1486.6370
2024-03-09T00:42:01.041Z,1503.3781
2024-03-09T00:42:12.077Z,1493.2889
2024-03-09T00:42:23.119Z,1496.6370
2024-03-09T00:42:34.199Z,1496.6370
2024-03-09T00:42:45.238Z,1500.0000
2024-03-09T00:42:56.269Z,1503.3781
2024-03-09T00:43:07.784Z,1496.6370
2024-03-09T00:43:19.129Z,1500.0000
2024-03-09T00:43:30.214Z,1494.9611
2024-03-09T00:43:41.366Z,1496.6370
2024-03-09T00:43:52.453Z,1498.3170
2024-03-09T00:44:03.531Z,1496.6370
2024-03-09T00:44:14.681Z,1496.6370
2024-03-09T00:44:25.748Z,1500.0000
2024-03-09T00:44:36.818Z,1500.0000
2024-03-09T00:44:47.864Z,1508.4750
2024-03-09T00:44:58.930Z,1500.0000
2024-03-09T00:45:09.980Z,1510.1810
2024-03-09T00:45:21.051Z,1506.7720
2024-03-09T00:45:32.130Z,1503.3781
2024-03-09T00:45:43.192Z,1503.3781
2024-03-09T00:45:54.709Z,1498.3170
2024-03-09T00:46:05.752Z,1505.0730
2024-03-09T00:46:16.783Z,1505.0730
2024-03-09T00:46:27.869Z,1503.3781
2024-03-09T00:46:38.935Z,1498.3170
2024-03-09T00:46:50.048Z,1503.3781
2024-03-09T00:47:01.112Z,1493.2889
2024-03-09T00:47:12.235Z,1506.7720
2024-03-09T00:47:23.281Z,1498.3170
2024-03-09T00:47:34.374Z,1501.6870
2024-03-09T00:47:45.427Z,1500.0000
2024-03-09T00:47:56.541Z,1496.6370
2024-03-09T00:48:07.627Z,1506.7720
2024-03-09T00:48:18.719Z,1505.0730
2024-03-09T00:48:29.740Z,1484.9830
2024-03-09T00:48:40.792Z,1489.9550
2024-03-09T00:48:51.849Z,1500.0000
2024-03-09T00:49:02.909Z,1501.6870
2024-03-09T00:49:13.969Z,1501.6870
2024-03-09T00:49:25.048Z,1500.0000
2024-03-09T00:49:36.105Z,1505.0730
2024-03-09T00:49:47.151Z,1498.3170
2024-03-09T00:49:58.274Z,1489.9550
2024-03-09T00:50:09.434Z,1498.3170
2024-03-09T00:50:20.541Z,1501.6870
2024-03-09T00:50:31.592Z,1494.9611
2024-03-09T00:50:42.670Z,1501.6870
2024-03-09T00:50:53.705Z,1500.0000
2024-03-09T00:51:04.749Z,1493.2889
2024-03-09T00:51:15.795Z,1503.3781
2024-03-09T00:51:26.838Z,1505.0730
2024-03-09T00:51:37.886Z,1503.3781
2024-03-09T00:51:48.948Z,1501.6870
2024-03-09T00:52:00.062Z,1505.0730
2024-03-09T00:52:11.112Z,1496.6370
2024-03-09T00:52:22.165Z,1493.2889
2024-03-09T00:52:33.233Z,1503.3781
2024-03-09T00:52:44.297Z,1510.1810
2024-03-09T00:52:55.480Z,1505.0730
2024-03-09T00:53:06.649Z,1503.3781
2024-03-09T00:53:17.735Z,1496.6370
2024-03-09T00:53:29.918Z,1486.6370
2024-03-09T00:53:41.283Z,1500.0000
2024-03-09T00:53:52.320Z,1503.3781
2024-03-09T00:54:03.362Z,1491.6200
2024-03-09T00:54:14.413Z,1505.0730
2024-03-09T00:54:25.470Z,1496.6370
2024-03-09T00:54:36.521Z,1496.6370
2024-03-09T00:54:47.577Z,1496.6370
2024-03-09T00:54:58.638Z,1484.9830
2024-03-09T00:55:09.695Z,1500.0000
2024-03-09T00:55:20.754Z,1493.2889
2024-03-09T00:55:31.812Z,1486.6370
2024-03-09T00:55:42.952Z,1483.3330
2024-03-09T00:55:54.051Z,1488.2939
2024-03-09T00:56:05.634Z,1496.6370
2024-03-09T00:56:16.810Z,1496.6370
2024-03-09T00:56:27.871Z,1489.9550
2024-03-09T00:56:38.915Z,1493.2889
2024-03-09T00:56:49.982Z,1496.6370
2024-03-09T00:57:01.038Z,1505.0730
2024-03-09T00:57:12.096Z,1491.6200
2024-03-09T00:57:23.155Z,1491.6200
2024-03-09T00:57:34.200Z,1493.2889
2024-03-09T00:57:45.254Z,1494.9611
2024-03-09T00:57:56.281Z,1493.2889
2024-03-09T00:58:07.310Z,1488.2939
2024-03-09T00:58:18.371Z,1486.6370
2024-03-09T00:58:29.454Z,1486.6370
2024-03-09T00:58:40.552Z,1491.6200
2024-03-09T00:58:51.648Z,1480.0439
2024-03-09T00:59:03.524Z,1489.9550
2024-03-09T00:59:15.406Z,1486.6370
2024-03-09T00:59:26.623Z,1486.6370
2024-03-09T00:59:37.677Z,1488.2939
2024-03-09T00:59:48.724Z,1478.4050
2024-03-09T00:59:59.755Z,1483.3330
2024-03-09T01:00:10.814Z,1480.0439
2024-03-09T01:00:21.868Z,1488.2939
2024-03-09T01:00:32.939Z,1500.0000
2024-03-09T01:00:44.050Z,1498.3170
2024-03-09T01:00:55.141Z,1486.6370
2024-03-09T01:01:06.310Z,1489.9550
2024-03-09T01:01:17.425Z,1478.4050
2024-03-09T01:01:28.503Z,1494.9611
2024-03-09T01:01:39.608Z,1481.6870
2024-03-09T01:01:50.652Z,1493.2889
2024-03-09T01:02:01.791Z,1493.2889
2024-03-09T01:02:12.902Z,1478.4050
2024-03-09T01:02:23.947Z,1488.2939
2024-03-09T01:02:35.010Z,1483.3330
2024-03-09T01:02:46.066Z,1488.2939
2024-03-09T01:02:57.114Z,1483.3330
2024-03-09T01:03:08.170Z,1481.6870
2024-03-09T01:03:19.201Z,1486.6370
2024-03-09T01:03:30.266Z,1488.2939
2024-03-09T01:03:41.309Z,1489.9550
2024-03-09T01:03:52.367Z,1478.4050
2024-03-09T01:04:03.380Z,1493.2889
2024-03-09T01:04:14.429Z,1478.4050
2024-03-09T01:04:25.510Z,1493.2889
2024-03-09T01:04:36.638Z,1484.9830
2024-03-09T01:04:47.714Z,1489.9550
2024-03-09T01:04:58.786Z,1484.9830
2024-03-09T01:05:09.880Z,1486.6370
2024-03-09T01:05:21.358Z,1493.2889
2024-03-09T01:05:32.684Z,1470.2640
2024-03-09T01:05:43.691Z,1470.2640
2024-03-09T01:05:54.765Z,1483.3330
2024-03-09T01:06:05.798Z,1480.0439
2024-03-09T01:06:16.851Z,1470.2640
2024-03-09T01:06:27.908Z,1470.2640
2024-03-09T01:06:38.968Z,1489.9550
2024-03-09T01:06:50.028Z,1478.4050
2024-03-09T01:07:01.099Z,1483.3330
2024-03-09T01:07:12.128Z,1478.4050
2024-03-09T01:07:23.202Z,1470.2640
2024-03-09T01:07:34.301Z,1467.0330
2024-03-09T01:07:45.396Z,1470.2640
2024-03-09T01:07:56.464Z,1484.9830
2024-03-09T01:08:07.634Z,1463.8160
2024-03-09T01:08:21.023Z,1483.3330
2024-03-09T01:08:32.463Z,1480.0439
2024-03-09T01:08:43.669Z,1480.0439
2024-03-09T01:08:54.738Z,1463.8160
2024-03-09T01:09:05.749Z,1473.5100
2024-03-09T01:09:16.789Z,1467.0330
2024-03-09T01:09:27.829Z,1473.5100
2024-03-09T01:09:38.916Z,1473.5100
2024-03-09T01:09:49.989Z,1473.5100
2024-03-09T01:10:01.073Z,1460.6130
2024-03-09T01:10:12.098Z,1476.7700
2024-03-09T01:10:23.198Z,1476.7700
2024-03-09T01:10:34.254Z,1460.6130
2024-03-09T01:10:45.396Z,1467.0330
2024-03-09T01:10:56.649Z,1470.2640
2024-03-09T01:11:08.086Z,1473.5100
2024-03-09T01:11:19.337Z,1470.2640
2024-03-09T01:11:30.537Z,1470.2640
2024-03-09T01:11:41.743Z,1473.5100
2024-03-09T01:11:52.911Z,1467.0330
2024-03-09T01:12:04.115Z,1467.0330
2024-03-09T01:12:15.230Z,1470.2640
2024-03-09T01:12:26.279Z,1473.5100
2024-03-09T01:12:37.364Z,1473.5100
2024-03-09T01:12:48.394Z,1467.0330
2024-03-09T01:12:59.423Z,1467.0330
2024-03-09T01:13:10.483Z,1463.8160
2024-03-09T01:13:21.590Z,1475.1379
2024-03-09T01:13:32.717Z,1471.8850
2024-03-09T01:13:43.901Z,1468.6470
2024-03-09T01:13:55.023Z,1473.5100
2024-03-09T01:14:06.114Z,1473.5100
2024-03-09T01:14:17.157Z,1455.8340
2024-03-09T01:14:28.213Z,1452.6660
2024-03-09T01:14:39.323Z,1457.4240
2024-03-09T01:14:50.351Z,1467.0330
2024-03-09T01:15:01.399Z,1463.8160
2024-03-09T01:15:12.461Z,1468.6470
2024-03-09T01:15:23.521Z,1467.0330
2024-03-09T01:15:34.558Z,1460.6130
2024-03-09T01:15:45.588Z,1470.2640
2024-03-09T01:15:56.635Z,1454.2480
2024-03-09T01:16:07.664Z,1465.4230
2024-03-09T01:16:18.707Z,1468.6470
2024-03-09T01:16:29.844Z,1463.8160
2024-03-09T01:16:40.891Z,1471.8850
2024-03-09T01:16:51.961Z,1465.4230
2024-03-09T01:17:03.136Z,1460.6130
2024-03-09T01:17:14.236Z,1460.6130
2024-03-09T01:17:25.344Z,1451.0870
2024-03-09T01:17:36.393Z,1467.0330
2024-03-09T01:17:47.443Z,1452.6660
2024-03-09T01:17:58.575Z,1455.8340
2024-03-09T01:18:09.697Z,1449.5110
2024-03-09T01:18:20.756Z,1463.8160
2024-03-09T01:18:31.830Z,1463.8160
2024-03-09T01:18:42.919Z,1462.2130
2024-03-09T01:18:53.930Z,1444.8051
2024-03-09T01:19:04.980Z,1468.6470
2024-03-09T01:19:16.059Z,1463.8160
2024-03-09T01:19:27.152Z,1454.2480
2024-03-09T01:19:38.224Z,1455.8340
2024-03-09T01:19:49.381Z,1457.4240
2024-03-09T01:20:00.525Z,1455.8340
2024-03-09T01:20:11.791Z,1460.6130
2024-03-09T01:20:23.197Z,1444.8051
2024-03-09T01:20:34.215Z,1441.6851
2024-03-09T01:20:45.286Z,1457.4240
2024-03-09T01:20:56.293Z,1460.6130
2024-03-09T01:21:07.352Z,1457.4240
2024-03-09T01:21:18.423Z,1454.2480
2024-03-09T01:21:29.482Z,1452.6660
2024-03-09T01:21:40.534Z,1454.2480
2024-03-09T01:21:51.555Z,1441.6851
2024-03-09T01:22:02.617Z,1452.6660
2024-03-09T01:22:13.719Z,1455.8340
2024-03-09T01:22:24.762Z,1457.4240
2024-03-09T01:22:35.903Z,1449.5110
2024-03-09T01:22:47.199Z,1457.4240
2024-03-09T01:22:58.437Z,1457.4240
2024-03-09T01:23:09.694Z,1460.6130
2024-03-09T01:23:20.808Z,1444.8051
2024-03-09T01:23:31.882Z,1447.9390
2024-03-09T01:23:42.929Z,1454.2480
2024-03-09T01:23:54.066Z,1454.2480
2024-03-09T01:24:05.145Z,1455.8340
2024-03-09T01:24:16.180Z,1449.5110
2024-03-09T01:24:27.244Z,1451.0870
2024-03-09T01:24:38.272Z,1451.0870
2024-03-09T01:24:49.328Z,1446.3710
2024-03-09T01:25:00.432Z,1451.0870
2024-03-09T01:25:11.465Z,1451.0870
2024-03-09T01:25:22.513Z,1437.0291
2024-03-09T01:25:33.579Z,1438.5780
2024-03-09T01:25:44.644Z,1451.0870
2024-03-09T01:25:55.722Z,1444.8051
2024-03-09T01:26:06.796Z,1447.9390
2024-03-09T01:26:17.837Z,1451.0870
2024-03-09T01:26:28.898Z,1451.0870
2024-03-09T01:26:39.943Z,1444.8051
2024-03-09T01:26:51.007Z,1446.3710
2024-03-09T01:27:02.065Z,1451.0870
2024-03-09T01:27:13.118Z,1451.0870
2024-03-09T01:27:24.160Z,1449.5110
2024-03-09T01:27:35.186Z,1447.9390
2024-03-09T01:27:46.249Z,1446.3710
2024-03-09T01:27:57.305Z,1449.5110
2024-03-09T01:28:08.340Z,1449.5110
2024-03-09T01:28:19.366Z,1441.6851
2024-03-09T01:28:30.447Z,1444.8051
2024-03-09T01:28:41.503Z,1438.5780
2024-03-09T01:28:52.627Z,1440.1290
2024-03-09T01:29:03.756Z,1437.0291
2024-03-09T01:29:14.880Z,1444.8051
2024-03-09T01:29:25.916Z,1432.4030
2024-03-09T01:29:36.977Z,1443.2430
2024-03-09T01:29:48.012Z,1441.6851
2024-03-09T01:29:59.054Z,1435.4840
2024-03-09T01:30:10.190Z,1446.3710
2024-03-09T01:30:21.270Z,1444.8051
2024-03-09T01:30:32.353Z,1441.6851
2024-03-09T01:30:43.410Z,1444.8051
2024-03-09T01:30:54.454Z,1444.8051
2024-03-09T01:31:05.510Z,1440.1290
2024-03-09T01:31:16.561Z,1447.9390
2024-03-09T01:31:27.745Z,1429.3361
2024-03-09T01:31:38.822Z,1444.8051
2024-03-09T01:31:49.901Z,1444.8051
2024-03-09T01:32:01.067Z,1443.2430
2024-03-09T01:32:12.163Z,1435.4840
2024-03-09T01:32:23.203Z,1432.4030
2024-03-09T01:32:34.530Z,1440.1290
2024-03-09T01:32:45.982Z,1443.2430
2024-03-09T01:32:57.120Z,1430.8680
2024-03-09T01:33:08.178Z,1438.5780
2024-03-09T01:33:19.243Z,1435.4840
2024-03-09T01:33:30.281Z,1438.5780
2024-03-09T01:33:41.340Z,1441.6851
2024-03-09T01:33:52.432Z,1426.2820
2024-03-09T01:34:03.571Z,1435.4840
2024-03-09T01:34:14.637Z,1441.6851
2024-03-09T01:34:25.703Z,1438.5780
2024-03-09T01:34:36.831Z,1424.7600
2024-03-09T01:34:47.908Z,1438.5780
2024-03-09T01:34:58.976Z,1437.0291
2024-03-09T01:35:10.214Z,1443.2430
2024-03-09T01:35:21.603Z,1432.4030
2024-03-09T01:35:32.688Z,1437.0291
2024-03-09T01:35:43.757Z,1429.3361
2024-03-09T01:35:54.821Z,1435.4840
2024-03-09T01:36:07.415Z,1440.1290
2024-03-09T01:36:20.629Z,1432.4030
2024-03-09T01:36:31.682Z,1432.4030
2024-03-09T01:36:42.709Z,1437.0291
2024-03-09T01:36:53.770Z,1429.3361
2024-03-09T01:37:04.829Z,1429.3361
2024-03-09T01:37:15.916Z,1441.6851
2024-03-09T01:37:27.052Z,1418.7040
2024-03-09T01:37:38.199Z,1424.7600
2024-03-09T01:37:49.290Z,1433.9420
2024-03-09T01:38:00.395Z,1433.9420
2024-03-09T01:38:11.519Z,1427.8080
2024-03-09T01:38:22.615Z,1420.2130
2024-03-09T01:38:33.694Z,1429.3361
2024-03-09T01:38:44.757Z,1433.9420
2024-03-09T01:38:55.824Z,1435.4840
2024-03-09T01:39:06.889Z,1430.8680
2024-03-09T01:39:17.928Z,1418.7040
2024-03-09T01:39:28.981Z,1420.2130
2024-03-09T01:39:40.242Z,1429.3361
2024-03-09T01:39:51.744Z,1429.3361
2024-03-09T01:40:03.073Z,1432.4030
2024-03-09T01:40:14.123Z,1423.2410
2024-03-09T01:40:25.227Z,1432.4030
2024-03-09T01:40:36.297Z,1432.4030
2024-03-09T01:40:47.348Z,1430.8680
2024-03-09T01:40:58.446Z,1433.9420
2024-03-09T01:41:09.543Z,1438.5780
2024-03-09T01:41:20.638Z,1432.4030
2024-03-09T01:41:31.699Z,1429.3361
2024-03-09T01:41:42.745Z,1432.4030
2024-03-09T01:41:53.825Z,1438.5780
2024-03-09T01:42:04.890Z,1432.4030
2024-03-09T01:42:15.931Z,1429.3361
2024-03-09T01:42:26.989Z,1426.2820
2024-03-09T01:42:38.034Z,1437.0291
2024-03-09T01:42:49.091Z,1429.3361
2024-03-09T01:43:00.137Z,1435.4840
2024-03-09T01:43:11.202Z,1432.4030
2024-03-09T01:43:22.268Z,1430.8680
2024-03-09T01:43:33.314Z,1430.8680
2024-03-09T01:43:44.370Z,1429.3361
2024-03-09T01:43:55.484Z,1429.3361
2024-03-09T01:44:06.618Z,1429.3361
2024-03-09T01:44:17.737Z,1430.8680
2024-03-09T01:44:28.793Z,1417.1970
2024-03-09T01:44:39.830Z,1420.2130
2024-03-09T01:44:50.934Z,1427.8080
2024-03-09T01:45:02.053Z,1432.4030
2024-03-09T01:45:13.123Z,1426.2820
2024-03-09T01:45:31.165Z,1430.8680
2024-03-09T01:45:42.232Z,1415.6949
2024-03-09T01:45:53.296Z,1420.2130
2024-03-09T01:46:04.320Z,1411.2050
2024-03-09T01:46:22.298Z,1424.7600
2024-03-09T01:46:33.408Z,1412.6980
2024-03-09T01:46:44.491Z,1412.6980
2024-03-09T01:46:55.577Z,1411.2050
2024-03-09T01:47:06.709Z,1420.2130
2024-03-09T01:47:17.776Z,1417.1970
2024-03-09T01:47:28.903Z,1423.2410
2024-03-09T01:47:39.996Z,1432.4030
2024-03-09T01:47:51.061Z,1423.2410
2024-03-09T01:48:02.182Z,1423.2410
2024-03-09T01:48:13.422Z,1423.2410
2024-03-09T01:48:24.483Z,1420.2130
2024-03-09T01:48:35.604Z,1424.7600
2024-03-09T01:48:46.663Z,1423.2410
2024-03-09T01:48:57.760Z,1429.3361
2024-03-09T01:49:08.769Z,1415.6949
2024-03-09T01:49:19.830Z,1421.7250
2024-03-09T01:49:30.925Z,1426.2820
2024-03-09T01:49:41.988Z,1417.1970
2024-03-09T01:49:53.328Z,1417.1970
2024-03-09T01:50:04.736Z,1421.7250
2024-03-09T01:50:15.842Z,1427.8080
2024-03-09T01:50:26.881Z,1423.2410
2024-03-09T01:50:37.947Z,1432.4030
2024-03-09T01:50:49.009Z,1417.1970
2024-03-09T01:51:00.025Z,1417.1970
2024-03-09T01:51:11.065Z,1427.8080
2024-03-09T01:51:22.103Z,1432.4030
2024-03-09T01:51:33.156Z,1414.1949
2024-03-09T01:51:44.205Z,1427.8080
2024-03-09T01:51:55.246Z,1432.4030
2024-03-09T01:52:06.293Z,1426.2820
2024-03-09T01:52:17.326Z,1426.2820
2024-03-09T01:52:28.514Z,1423.2410
2024-03-09T01:52:39.600Z,1423.2410
2024-03-09T01:52:50.712Z,1426.2820
2024-03-09T01:53:01.796Z,1420.2130
2024-03-09T01:53:12.867Z,1423.2410
2024-03-09T01:53:23.895Z,1417.1970
2024-03-09T01:53:34.959Z,1424.7600
2024-03-09T01:53:46.013Z,1423.2410
2024-03-09T01:53:57.073Z,1420.2130
2024-03-09T01:54:08.120Z,1429.3361
2024-03-09T01:54:19.163Z,1423.2410
2024-03-09T01:54:30.215Z,1423.2410
2024-03-09T01:54:42.728Z,1429.3361
2024-03-09T01:54:54.228Z,1429.3361
2024-03-09T01:55:05.407Z,1423.2410
2024-03-09T01:55:16.619Z,1405.2629
2024-03-09T01:55:27.737Z,1423.2410
2024-03-09T01:55:38.784Z,1424.7600
2024-03-09T01:55:49.998Z,1420.2130
2024-03-09T01:56:01.071Z,1433.9420
2024-03-09T01:56:12.169Z,1426.2820
2024-03-09T01:56:23.292Z,1432.4030
2024-03-09T01:56:34.341Z,1415.6949
2024-03-09T01:56:45.431Z,1420.2130
2024-03-09T01:56:56.485Z,1423.2410
2024-03-09T01:57:07.523Z,1420.2130
2024-03-09T01:57:18.578Z,1415.6949
2024-03-09T01:57:29.649Z,1427.8080
2024-03-09T01:57:40.690Z,1426.2820
2024-03-09T01:57:51.717Z,1420.2130
2024-03-09T01:58:02.760Z,1414.1949
2024-03-09T01:58:14.015Z,1424.7600
2024-03-09T01:58:25.071Z,1417.1970
2024-03-09T01:58:36.114Z,1423.2410
2024-03-09T01:58:47.201Z,1412.6980
2024-03-09T01:58:58.295Z,1423.2410
2024-03-09T01:59:09.370Z,1423.2410
2024-03-09T01:59:20.415Z,1414.1949
2024-03-09T01:59:31.467Z,1426.2820
2024-03-09T01:59:42.509Z,1429.3361
2024-03-09T01:59:53.521Z,1430.8680
2024-03-09T02:00:04.583Z,1417.1970
2024-03-09T02:00:15.658Z,1421.7250
2024-03-09T02:00:26.703Z,1424.7600
2024-03-09T02:00:37.764Z,1430.8680
2024-03-09T02:00:48.844Z,1427.8080
2024-03-09T02:00:59.881Z,1430.8680
2024-03-09T02:01:11.031Z,1418.7040
2024-03-09T02:01:22.099Z,1427.8080
2024-03-09T02:01:33.260Z,1426.2820
2024-03-09T02:01:44.353Z,1423.2410
2024-03-09T02:01:55.421Z,1418.7040
2024-03-09T02:02:06.505Z,1438.5780
2024-03-09T02:02:17.738Z,1432.4030
2024-03-09T02:02:28.979Z,1430.8680
2024-03-09T02:02:40.100Z,1415.6949
2024-03-09T02:02:51.131Z,1426.2820
2024-03-09T02:03:02.190Z,1423.2410
2024-03-09T02:03:13.236Z,1427.8080
2024-03-09T02:03:24.294Z,1430.8680
2024-03-09T02:03:35.356Z,1427.8080
2024-03-09T02:03:46.416Z,1429.3361
2024-03-09T02:03:57.407Z,1427.8080
2024-03-09T02:04:08.457Z,1424.7600
2024-03-09T02:04:19.501Z,1429.3361
2024-03-09T02:04:30.590Z,1430.8680
2024-03-09T02:04:41.666Z,1426.2820
2024-03-09T02:04:52.974Z,1414.1949
2024-03-09T02:05:04.393Z,1429.3361
2024-03-09T02:05:15.681Z,1429.3361
2024-03-09T02:05:26.783Z,1420.2130
2024-03-09T02:05:37.849Z,1414.1949
2024-03-09T02:05:48.909Z,1426.2820
2024-03-09T02:05:59.942Z,1414.1949
2024-03-09T02:06:10.973Z,1427.8080
2024-03-09T02:06:22.086Z,1417.1970
2024-03-09T02:06:33.133Z,1423.2410
2024-03-09T02:06:44.166Z,1433.9420
2024-03-09T02:06:55.196Z,1427.8080
2024-03-09T02:07:06.243Z,1426.2820
2024-03-09T02:07:17.656Z,1432.4030
2024-03-09T02:07:29.156Z,1429.3361